createdAt,value
2022-12-29T00:00:33.681Z,7.30
2022-12-29T00:03:01.920Z,7.30
2022-12-29T00:05:35.137Z,7.40
2022-12-29T00:08:03.367Z,7.40
2022-12-29T00:10:31.395Z,7.50
2022-12-29T00:13:17.507Z,7.40
2022-12-29T00:15:47.160Z,7.50
2022-12-29T00:18:17.272Z,7.50
2022-12-29T00:21:05.792Z,7.50
2022-12-29T00:24:03.348Z,7.40
2022-12-29T00:26:52.184Z,7.40
2022-12-29T00:29:37.974Z,7.40
2022-12-29T00:32:26.287Z,7.40
2022-12-29T00:35:13.033Z,7.30
2022-12-29T00:38:03.091Z,7.30
2022-12-29T00:40:50.733Z,7.20
2022-12-29T00:43:37.174Z,7.20
2022-12-29T00:46:05.510Z,7.10
2022-12-29T00:48:52.683Z,7.10
2022-12-29T00:51:20.731Z,7.10
2022-12-29T00:53:50.350Z,7.10
2022-12-29T00:56:18.350Z,7.10
2022-12-29T00:58:46.538Z,7.10
2022-12-29T01:01:14.772Z,7.10
2022-12-29T01:03:42.827Z,7.10
2022-12-29T01:06:12.569Z,7.20
2022-12-29T01:08:40.921Z,7.20
2022-12-29T01:11:11.507Z,7.20
2022-12-29T01:13:42.162Z,7.20
2022-12-29T01:16:10.409Z,7.20
2022-12-29T01:18:38.629Z,7.20
2022-12-29T01:21:08.062Z,7.20
2022-12-29T01:23:36.109Z,7.20
2022-12-29T01:26:12.946Z,7.20
2022-12-29T01:28:42.686Z,7.20
2022-12-29T01:31:11.651Z,7.20
2022-12-29T01:33:39.989Z,7.20
2022-12-29T01:36:10.184Z,7.20
2022-12-29T01:38:39.122Z,7.20
2022-12-29T01:41:09.852Z,7.20
2022-12-29T01:43:44.180Z,7.20
2022-12-29T01:46:25.311Z,7.20
2022-12-29T01:49:00.271Z,7.20
2022-12-29T01:51:31.945Z,7.10
2022-12-29T01:54:03.577Z,7.10
2022-12-29T01:56:31.689Z,7.10
2022-12-29T01:59:06.159Z,7.00
2022-12-29T02:01:34.804Z,6.90
2022-12-29T02:04:03.783Z,6.90
2022-12-29T02:06:36.031Z,6.90
2022-12-29T02:09:04.375Z,6.90
2022-12-29T02:11:33.952Z,6.90
2022-12-29T02:14:04.065Z,7.00
2022-12-29T02:16:45.990Z,7.10
2022-12-29T02:19:41.677Z,7.30
2022-12-29T02:22:21.373Z,7.40
2022-12-29T02:25:29.378Z,7.50
2022-12-29T02:28:21.901Z,7.50
2022-12-29T02:31:06.767Z,7.50
2022-12-29T02:33:46.439Z,7.60
2022-12-29T02:36:22.765Z,7.60
2022-12-29T02:39:04.196Z,7.60
2022-12-29T02:41:35.786Z,7.70
2022-12-29T02:44:14.695Z,7.80
2022-12-29T02:46:49.778Z,7.90
2022-12-29T02:49:22.284Z,7.90
2022-12-29T02:51:56.964Z,7.90
2022-12-29T02:54:48.664Z,8.00
2022-12-29T02:57:29.979Z,7.90
2022-12-29T03:00:00.336Z,7.90
2022-12-29T03:02:50.720Z,7.90
2022-12-29T03:05:34.544Z,7.90
2022-12-29T03:08:08.725Z,8.00
2022-12-29T03:10:48.106Z,8.00
2022-12-29T03:13:45.417Z,8.00
2022-12-29T03:16:21.984Z,8.00
2022-12-29T03:18:58.346Z,8.00
2022-12-29T03:21:47.928Z,8.10
2022-12-29T03:24:22.095Z,8.20
2022-12-29T03:26:52.324Z,8.20
2022-12-29T03:29:22.837Z,8.30
2022-12-29T03:31:53.873Z,8.30
2022-12-29T03:34:24.651Z,8.30
2022-12-29T03:36:56.857Z,8.30
2022-12-29T03:39:27.144Z,8.30
2022-12-29T03:42:01.295Z,8.30
2022-12-29T03:44:35.273Z,8.30
2022-12-29T03:47:04.355Z,8.30
2022-12-29T03:49:34.450Z,8.30
2022-12-29T03:52:05.869Z,8.30
2022-12-29T03:54:39.460Z,8.30
2022-12-29T03:57:08.258Z,8.30
2022-12-29T03:59:54.962Z,8.20
2022-12-29T04:02:23.383Z,8.20
2022-12-29T04:04:53.065Z,8.20
2022-12-29T04:07:21.276Z,8.10
2022-12-29T04:09:50.141Z,8.00
2022-12-29T04:12:23.292Z,8.00
2022-12-29T04:14:51.284Z,8.00
2022-12-29T04:17:20.187Z,8.00
2022-12-29T04:19:53.067Z,8.00
2022-12-29T04:22:21.154Z,7.90
2022-12-29T04:24:49.446Z,7.90
2022-12-29T04:27:17.418Z,7.90
2022-12-29T04:30:17.286Z,7.80
2022-12-29T04:33:05.831Z,7.80
2022-12-29T04:35:35.620Z,7.80
2022-12-29T04:38:04.081Z,7.90
2022-12-29T04:40:32.364Z,7.90
2022-12-29T04:43:00.382Z,7.90
2022-12-29T04:45:29.052Z,7.90
2022-12-29T04:48:06.151Z,7.90
2022-12-29T04:51:02.046Z,8.00
2022-12-29T04:53:36.821Z,8.00
2022-12-29T04:56:06.104Z,8.10
2022-12-29T04:58:34.205Z,8.20
2022-12-29T05:01:02.227Z,8.20
2022-12-29T05:03:32.416Z,8.30
2022-12-29T05:06:02.690Z,8.30
2022-12-29T05:08:30.814Z,8.20
2022-12-29T05:11:01.265Z,8.20
2022-12-29T05:13:29.543Z,8.20
2022-12-29T05:15:57.666Z,8.10
2022-12-29T05:18:26.419Z,8.10
2022-12-29T05:20:54.387Z,8.10
2022-12-29T05:23:25.951Z,8.00
2022-12-29T05:26:07.292Z,7.90
2022-12-29T05:28:58.785Z,7.90
2022-12-29T05:31:26.891Z,7.80
2022-12-29T05:33:55.061Z,7.80
2022-12-29T05:36:23.418Z,7.80
2022-12-29T05:38:57.494Z,7.70
2022-12-29T05:41:25.605Z,7.80
2022-12-29T05:44:28.820Z,7.90
2022-12-29T05:47:14.459Z,8.00
2022-12-29T05:50:02.682Z,8.10
2022-12-29T05:52:50.882Z,8.10
2022-12-29T05:55:20.319Z,8.00
2022-12-29T05:57:50.612Z,8.00
2022-12-29T06:00:19.611Z,8.00
2022-12-29T06:02:48.757Z,7.90
2022-12-29T06:05:18.753Z,7.80
2022-12-29T06:07:47.519Z,7.70
2022-12-29T06:10:18.249Z,7.70
2022-12-29T06:12:58.818Z,7.60
2022-12-29T06:15:29.356Z,7.70
2022-12-29T06:17:57.341Z,7.70
2022-12-29T06:20:25.763Z,7.80
2022-12-29T06:22:54.310Z,7.80
2022-12-29T06:25:22.501Z,7.80
2022-12-29T06:27:50.729Z,7.90
2022-12-29T06:30:20.233Z,7.80
2022-12-29T06:32:49.642Z,7.90
2022-12-29T06:35:17.779Z,7.90
2022-12-29T06:37:49.197Z,7.90
2022-12-29T06:40:17.673Z,7.90
2022-12-29T06:43:06.158Z,7.90
2022-12-29T06:45:50.290Z,7.90
2022-12-29T06:48:18.462Z,7.90
2022-12-29T06:50:46.413Z,7.90
2022-12-29T06:53:14.356Z,7.80
2022-12-29T06:55:43.726Z,7.80
2022-12-29T06:58:11.809Z,7.70
2022-12-29T07:00:40.706Z,7.60
2022-12-29T07:03:10.019Z,7.50
2022-12-29T07:05:38.108Z,7.40
2022-12-29T07:08:06.917Z,7.30
2022-12-29T07:10:35.775Z,7.20
2022-12-29T07:13:03.966Z,7.10
2022-12-29T07:15:32.151Z,7.10
2022-12-29T07:18:00.167Z,7.10
2022-12-29T07:20:29.598Z,7.10
2022-12-29T07:22:57.844Z,7.10
2022-12-29T07:25:26.024Z,7.10
2022-12-29T07:27:54.350Z,7.10
2022-12-29T07:30:22.395Z,7.00
2022-12-29T07:32:50.582Z,7.00
2022-12-29T07:35:18.724Z,7.00
2022-12-29T07:37:48.536Z,7.00
2022-12-29T07:40:16.942Z,7.10
2022-12-29T07:42:45.324Z,7.20
2022-12-29T07:45:16.999Z,7.20
2022-12-29T07:48:04.375Z,7.30
2022-12-29T07:50:32.546Z,7.40
2022-12-29T07:53:03.090Z,7.40
2022-12-29T07:55:31.591Z,7.60
2022-12-29T07:57:59.902Z,7.70
2022-12-29T08:00:28.407Z,7.80
2022-12-29T08:02:56.419Z,7.90
2022-12-29T08:05:24.622Z,8.00
2022-12-29T08:07:52.854Z,8.00
2022-12-29T08:10:22.320Z,7.90
2022-12-29T08:12:50.545Z,7.90
2022-12-29T08:15:19.037Z,7.90
2022-12-29T08:17:46.995Z,7.90
2022-12-29T08:20:15.265Z,7.90
2022-12-29T08:22:43.540Z,8.00
2022-12-29T08:25:11.714Z,8.00
2022-12-29T08:27:41.074Z,8.10
2022-12-29T08:30:10.314Z,8.20
2022-12-29T08:32:38.474Z,8.30
2022-12-29T08:35:07.156Z,8.30
2022-12-29T08:37:35.615Z,8.40
2022-12-29T08:40:05.064Z,8.30
2022-12-29T08:42:33.297Z,8.30
2022-12-29T08:45:02.814Z,8.30
2022-12-29T08:47:31.624Z,8.30
2022-12-29T08:49:59.897Z,8.30
2022-12-29T08:52:28.204Z,8.30
2022-12-29T08:54:56.719Z,8.40
2022-12-29T08:57:24.854Z,8.40
2022-12-29T09:00:07.857Z,8.40
2022-12-29T09:02:36.167Z,8.60
2022-12-29T09:05:05.553Z,8.50
2022-12-29T09:07:33.529Z,8.50
2022-12-29T09:10:01.592Z,8.50
2022-12-29T09:12:35.977Z,8.60
2022-12-29T09:15:07.423Z,8.60
2022-12-29T09:17:45.873Z,8.60
2022-12-29T09:20:15.976Z,8.60
2022-12-29T09:22:44.370Z,8.60
2022-12-29T09:25:12.730Z,8.60
2022-12-29T09:27:41.165Z,8.60
2022-12-29T09:30:13.223Z,8.70
2022-12-29T09:32:45.034Z,8.70
2022-12-29T09:35:13.564Z,8.80
2022-12-29T09:37:41.652Z,8.90
2022-12-29T09:40:19.555Z,9.00
2022-12-29T09:43:05.676Z,9.10
2022-12-29T09:45:42.800Z,9.20
2022-12-29T09:48:16.553Z,9.40
2022-12-29T09:50:50.064Z,9.40
2022-12-29T09:53:23.436Z,9.30
2022-12-29T09:55:55.766Z,9.40
2022-12-29T09:58:28.238Z,9.80
2022-12-29T10:01:04.220Z,10.50
2022-12-29T10:03:44.316Z,10.80
2022-12-29T10:06:17.611Z,10.60
2022-12-29T10:08:52.536Z,10.40
2022-12-29T10:11:33.235Z,10.50
2022-12-29T10:14:18.719Z,10.90
2022-12-29T10:16:56.972Z,11.20
2022-12-29T10:19:37.754Z,11.00
2022-12-29T10:22:15.894Z,10.80
2022-12-29T10:24:46.883Z,10.70
2022-12-29T10:27:18.046Z,10.60
2022-12-29T10:29:50.574Z,10.50
2022-12-29T10:32:31.173Z,10.50
2022-12-29T10:35:05.531Z,10.60
2022-12-29T10:37:45.433Z,10.60
2022-12-29T10:40:21.919Z,10.50
2022-12-29T10:42:55.329Z,10.60
2022-12-29T10:45:30.021Z,10.70
2022-12-29T10:48:05.611Z,10.60
2022-12-29T10:50:33.796Z,10.60
2022-12-29T10:53:05.814Z,10.70
2022-12-29T10:55:38.229Z,10.70
2022-12-29T10:58:09.174Z,10.70
2022-12-29T11:00:37.579Z,10.60
2022-12-29T11:03:33.475Z,10.40
2022-12-29T11:06:07.877Z,10.30
2022-12-29T11:08:42.005Z,10.20
2022-12-29T11:11:11.687Z,10.10
2022-12-29T11:13:50.790Z,10.00
2022-12-29T11:16:31.629Z,10.10
2022-12-29T11:19:01.285Z,10.10
2022-12-29T11:21:34.872Z,10.00
2022-12-29T11:24:05.814Z,9.90
2022-12-29T11:26:35.416Z,9.80
2022-12-29T11:29:23.558Z,9.80
2022-12-29T11:31:53.714Z,9.80
2022-12-29T11:34:27.607Z,9.70
2022-12-29T11:37:02.847Z,9.60
2022-12-29T11:39:43.133Z,9.70
2022-12-29T11:42:17.745Z,9.60
2022-12-29T11:44:48.511Z,9.60
2022-12-29T11:47:27.491Z,9.70
2022-12-29T11:50:02.748Z,9.80
2022-12-29T11:52:36.147Z,10.00
2022-12-29T11:55:06.958Z,10.10
2022-12-29T11:57:36.775Z,10.10
2022-12-29T12:00:18.018Z,10.10
2022-12-29T12:02:53.123Z,10.20
2022-12-29T12:05:32.751Z,10.20
2022-12-29T12:08:09.510Z,10.40
2022-12-29T12:10:44.038Z,10.50
2022-12-29T12:13:22.341Z,10.60
2022-12-29T12:15:57.551Z,10.60
2022-12-29T12:18:36.277Z,10.60
2022-12-29T12:21:15.651Z,10.60
2022-12-29T12:23:59.138Z,10.60
2022-12-29T12:26:36.734Z,10.60
2022-12-29T12:29:13.882Z,10.60
2022-12-29T12:31:48.172Z,10.60
2022-12-29T12:34:22.101Z,10.60
2022-12-29T12:37:05.004Z,10.60
2022-12-29T12:39:43.476Z,10.70
2022-12-29T12:42:29.645Z,10.80
2022-12-29T12:45:19.624Z,10.80
2022-12-29T12:48:02.936Z,10.80
2022-12-29T12:50:44.683Z,10.80
2022-12-29T12:53:36.034Z,10.90
2022-12-29T12:56:32.208Z,10.80
2022-12-29T12:59:09.952Z,10.80
2022-12-29T13:01:44.633Z,10.80
2022-12-29T13:04:50.272Z,10.80
2022-12-29T13:07:30.533Z,10.80
2022-12-29T13:10:21.670Z,10.80
2022-12-29T13:13:00.139Z,10.70
2022-12-29T13:15:44.931Z,10.70
2022-12-29T13:18:23.898Z,10.80
2022-12-29T13:20:57.291Z,10.80
2022-12-29T13:23:33.730Z,10.80
2022-12-29T13:26:09.044Z,10.70
2022-12-29T13:28:46.971Z,10.70
2022-12-29T13:31:21.548Z,10.70
2022-12-29T13:34:01.295Z,10.70
2022-12-29T13:36:35.600Z,10.70
2022-12-29T13:39:07.836Z,10.70
2022-12-29T13:41:43.734Z,10.70
2022-12-29T13:44:17.907Z,10.70
2022-12-29T13:46:47.943Z,10.70
2022-12-29T13:49:20.102Z,10.60
2022-12-29T13:51:52.409Z,10.60
2022-12-29T13:54:31.709Z,10.50
2022-12-29T13:57:09.359Z,10.40
2022-12-29T13:59:45.121Z,10.40
2022-12-29T14:02:17.465Z,10.30
2022-12-29T14:04:59.671Z,10.30
2022-12-29T14:07:28.364Z,10.20
2022-12-29T14:09:57.941Z,10.20
2022-12-29T14:12:41.013Z,10.20
2022-12-29T14:15:24.213Z,10.20
2022-12-29T14:18:14.969Z,10.10
2022-12-29T14:20:57.017Z,10.00
2022-12-29T14:23:40.884Z,10.00
2022-12-29T14:26:18.646Z,9.90
2022-12-29T14:28:49.828Z,9.80
2022-12-29T14:31:42.289Z,9.60
2022-12-29T14:34:31.207Z,9.50
2022-12-29T14:37:01.247Z,9.30
2022-12-29T14:39:39.422Z,9.20
2022-12-29T14:42:13.316Z,9.10
2022-12-29T14:44:50.892Z,9.10
2022-12-29T14:47:24.753Z,9.10
2022-12-29T14:49:54.272Z,9.00
2022-12-29T14:52:25.528Z,9.00
2022-12-29T14:54:57.128Z,8.90
2022-12-29T14:57:33.480Z,9.00
2022-12-29T15:00:18.269Z,9.00
2022-12-29T15:02:51.670Z,9.00
2022-12-29T15:05:32.287Z,8.90
2022-12-29T15:08:01.793Z,8.90
2022-12-29T15:10:38.265Z,8.90
2022-12-29T15:13:11.894Z,8.80
2022-12-29T15:15:41.512Z,8.80
2022-12-29T15:18:31.595Z,8.80
2022-12-29T15:21:03.267Z,8.70
2022-12-29T15:23:35.372Z,8.60
2022-12-29T15:26:05.978Z,8.60
2022-12-29T15:28:41.256Z,8.60
2022-12-29T15:31:15.593Z,8.60
2022-12-29T15:33:45.755Z,8.60
2022-12-29T15:36:16.533Z,8.50
2022-12-29T15:38:44.852Z,8.40
2022-12-29T15:41:28.368Z,8.40
2022-12-29T15:44:07.533Z,8.30
2022-12-29T15:46:37.326Z,8.20
2022-12-29T15:49:08.650Z,8.20
2022-12-29T15:51:40.859Z,8.10
2022-12-29T15:54:18.579Z,8.10
2022-12-29T15:56:47.359Z,8.10
2022-12-29T15:59:27.189Z,8.10
2022-12-29T16:02:03.526Z,8.10
2022-12-29T16:04:48.532Z,8.20
2022-12-29T16:07:28.973Z,8.20
2022-12-29T16:09:59.048Z,8.30
2022-12-29T16:12:33.856Z,8.40
2022-12-29T16:15:05.980Z,8.50
2022-12-29T16:17:49.792Z,8.40
2022-12-29T16:20:21.114Z,8.40
2022-12-29T16:22:53.009Z,8.50
2022-12-29T16:25:26.118Z,8.50
2022-12-29T16:27:55.273Z,8.50
2022-12-29T16:30:33.113Z,8.50
2022-12-29T16:33:05.567Z,8.50
2022-12-29T16:35:47.390Z,8.50
2022-12-29T16:38:17.395Z,8.50
2022-12-29T16:40:53.513Z,8.50
2022-12-29T16:43:24.906Z,8.50
2022-12-29T16:46:19.896Z,8.40
2022-12-29T16:48:53.325Z,8.40
2022-12-29T16:51:31.174Z,8.20
2022-12-29T16:54:01.693Z,8.10
2022-12-29T16:56:32.655Z,7.90
2022-12-29T16:59:05.273Z,7.80
2022-12-29T17:01:33.767Z,7.80
2022-12-29T17:04:10.759Z,7.60
2022-12-29T17:06:40.243Z,7.50
2022-12-29T17:09:22.041Z,7.40
2022-12-29T17:14:47.992Z,7.30
2022-12-29T17:17:19.242Z,7.30
2022-12-29T17:19:52.896Z,7.40
2022-12-29T17:22:25.683Z,7.30
2022-12-29T17:25:00.311Z,7.40
2022-12-29T17:27:35.734Z,7.40
2022-12-29T17:30:07.014Z,7.50
2022-12-29T17:32:35.619Z,7.40
2022-12-29T17:35:19.611Z,7.40
2022-12-29T17:37:51.693Z,7.40
2022-12-29T17:40:22.467Z,7.30
2022-12-29T17:42:53.532Z,7.30
2022-12-29T17:45:24.532Z,7.30
2022-12-29T17:47:53.851Z,7.30
2022-12-29T17:50:26.131Z,7.30
2022-12-29T17:53:01.227Z,7.30
2022-12-29T17:55:37.103Z,7.20
2022-12-29T17:58:17.126Z,7.20
2022-12-29T18:00:46.860Z,7.20
2022-12-29T18:03:17.466Z,7.20
2022-12-29T18:05:47.656Z,7.20
2022-12-29T18:08:15.781Z,7.20
2022-12-29T18:10:44.590Z,7.30
2022-12-29T18:13:33.587Z,7.40
2022-12-29T18:16:07.594Z,7.50
2022-12-29T18:18:36.506Z,7.60
2022-12-29T18:21:06.331Z,7.80
2022-12-29T18:23:36.248Z,7.90
2022-12-29T18:26:07.069Z,8.00
2022-12-29T18:28:35.340Z,8.10
2022-12-29T18:31:03.706Z,8.10
2022-12-29T18:33:31.853Z,8.10
2022-12-29T18:36:02.168Z,8.10
2022-12-29T18:38:32.199Z,8.10
2022-12-29T18:41:01.017Z,8.10
2022-12-29T18:43:29.334Z,8.20
2022-12-29T18:45:57.978Z,8.10
2022-12-29T18:48:26.245Z,8.20
2022-12-29T18:50:54.536Z,8.10
2022-12-29T18:53:24.287Z,8.20
2022-12-29T18:55:54.303Z,8.10
2022-12-29T18:58:22.633Z,8.10
2022-12-29T19:00:51.066Z,8.00
2022-12-29T19:03:19.998Z,8.00
2022-12-29T19:05:49.482Z,8.00
2022-12-29T19:08:18.401Z,8.00
2022-12-29T19:10:47.333Z,7.90
2022-12-29T19:13:19.569Z,7.90
2022-12-29T19:15:48.173Z,7.90
2022-12-29T19:21:08.523Z,7.80
2022-12-29T19:23:36.605Z,7.80
2022-12-29T19:26:04.713Z,7.80
2022-12-29T19:28:35.240Z,7.80
2022-12-29T19:31:04.867Z,7.70
2022-12-29T19:33:32.996Z,7.60
2022-12-29T19:36:03.223Z,7.50
2022-12-29T19:38:31.481Z,7.40
2022-12-29T19:41:04.253Z,7.30
2022-12-29T19:43:32.380Z,7.20
2022-12-29T19:46:08.176Z,7.10
2022-12-29T19:48:36.593Z,7.00
2022-12-29T19:51:06.483Z,7.00
2022-12-29T19:53:34.674Z,6.90
2022-12-29T19:56:05.096Z,6.90
2022-12-29T19:58:33.693Z,6.80
2022-12-29T20:01:07.721Z,6.80
2022-12-29T20:03:36.070Z,6.80
2022-12-29T20:06:04.250Z,6.80
2022-12-29T20:08:32.138Z,6.90
2022-12-29T20:11:01.533Z,7.00
2022-12-29T20:13:29.674Z,7.00
2022-12-29T20:16:02.494Z,7.00
2022-12-29T20:18:32.572Z,7.00
2022-12-29T20:21:04.739Z,6.90
2022-12-29T20:23:33.231Z,6.80
2022-12-29T20:26:02.069Z,6.70
2022-12-29T20:28:30.512Z,6.60
2022-12-29T20:31:00.663Z,6.50
2022-12-29T20:33:29.688Z,6.50
2022-12-29T20:36:07.817Z,6.40
2022-12-29T20:38:36.452Z,6.30
2022-12-29T20:41:05.175Z,6.30
2022-12-29T20:43:33.422Z,6.20
2022-12-29T20:46:01.651Z,6.10
2022-12-29T20:48:31.299Z,6.10
2022-12-29T20:51:00.555Z,6.00
2022-12-29T20:53:32.515Z,6.20
2022-12-29T20:56:04.311Z,6.30
2022-12-29T20:58:32.760Z,6.40
2022-12-29T21:01:03.213Z,6.40
2022-12-29T21:03:31.640Z,6.50
2022-12-29T21:06:00.495Z,6.60
2022-12-29T21:08:31.491Z,6.70
2022-12-29T21:10:59.870Z,6.70
2022-12-29T21:13:29.131Z,6.70
2022-12-29T21:15:58.490Z,6.80
2022-12-29T21:18:27.068Z,6.90
2022-12-29T21:20:59.594Z,6.90
2022-12-29T21:23:29.775Z,6.90
2022-12-29T21:26:00.529Z,6.90
2022-12-29T21:28:28.668Z,6.90
2022-12-29T21:30:56.842Z,6.80
2022-12-29T21:33:24.837Z,6.70
2022-12-29T21:35:52.816Z,6.70
2022-12-29T21:38:20.955Z,6.70
2022-12-29T21:40:50.544Z,6.70
2022-12-29T21:43:18.477Z,6.70
2022-12-29T21:45:49.805Z,6.60
2022-12-29T21:48:25.051Z,6.70
2022-12-29T21:51:12.679Z,6.70
2022-12-29T21:53:42.794Z,6.60
2022-12-29T21:56:15.612Z,6.50
2022-12-29T21:59:03.032Z,6.40
2022-12-29T22:01:50.779Z,6.40
2022-12-29T22:04:42.053Z,6.40
2022-12-29T22:07:29.447Z,6.30
2022-12-29T22:10:14.906Z,6.30
2022-12-29T22:13:00.540Z,6.20
2022-12-29T22:15:30.688Z,6.10
2022-12-29T22:17:59.276Z,6.10
2022-12-29T22:20:29.696Z,6.00
2022-12-29T22:22:58.004Z,6.00
2022-12-29T22:25:26.196Z,6.00
2022-12-29T22:27:59.250Z,5.90
2022-12-29T22:30:28.480Z,5.90
2022-12-29T22:32:58.136Z,5.80
2022-12-29T22:35:26.716Z,5.80
2022-12-29T22:37:55.357Z,5.80
2022-12-29T22:40:23.349Z,5.90
2022-12-29T22:42:51.485Z,5.90
2022-12-29T22:45:21.117Z,5.90
2022-12-29T22:47:49.170Z,6.00
2022-12-29T22:50:17.204Z,5.90
2022-12-29T22:52:45.123Z,5.90
2022-12-29T22:55:13.000Z,5.90
2022-12-29T22:57:41.001Z,5.80
2022-12-29T23:00:10.779Z,5.90
2022-12-29T23:02:40.981Z,6.00
2022-12-29T23:05:10.062Z,5.90
2022-12-29T23:07:38.254Z,6.00
2022-12-29T23:10:07.358Z,6.00
2022-12-29T23:12:35.506Z,6.00
2022-12-29T23:15:03.526Z,6.10
2022-12-29T23:17:31.903Z,6.10
2022-12-29T23:20:01.506Z,6.00
2022-12-29T23:22:29.988Z,6.00
2022-12-29T23:24:58.116Z,6.00
2022-12-29T23:27:26.183Z,6.00
2022-12-29T23:29:54.115Z,6.00
2022-12-29T23:32:22.063Z,6.10
2022-12-29T23:34:50.060Z,6.10
2022-12-29T23:37:19.527Z,6.10
2022-12-29T23:39:47.547Z,6.20
2022-12-29T23:42:15.934Z,6.20
2022-12-29T23:44:44.306Z,6.10
2022-12-29T23:47:12.193Z,6.10
2022-12-29T23:49:41.106Z,6.10
2022-12-29T23:52:09.346Z,6.20
2022-12-29T23:54:38.801Z,6.10
2022-12-29T23:57:06.737Z,6.10
2022-12-29T23:59:34.757Z,6.20
